EETN/TLL METAR and TAF weather

Enter ICAO airport designator
Station Type Date Time Source
EETN METAR 2022/06/28 14:50 UTC NOAA

EETN 281450Z 10012KT 9999 FEW030CB FEW040TCU 31/19 Q1018 TEMPO 3000 TSRA


Station Type Date Time Source
EETN Decoded METAR 2022/06/28 14:50 UTC NOAA

Tallinn, Estonia (EETN) 59-24N 024-49E 34M
Jun 28, 2022 - 10:50 AM EDT / 2022.06.28 1450 UTC
Wind: from the E (100 degrees) at 14 MPH (12 KT):0
Visibility: greater than 7 mile(s):0
Sky conditions: mostly clear
Weather: Cumulonimbus clouds, towering cumulus clouds observed
Temperature: 87 F (31 C)
Dew Point: 66 F (19 C)
Relative Humidity: 48%
Pressure (altimeter): 30.06 in. Hg (1018 hPa)
ob: EETN 281450Z 10012KT 9999 FEW030CB FEW040TCU 31/19 Q1018 TEMPO 3000 TSRA
cycle: 15

Station Type Date Time Source
EETN TAF 2022/06/28 12:33 UTC NOAA

TAF TAF EETN 281130Z 2812/2912 10010KT 9999 FEW030CB
TEMPO 2812/2821 VRB20KT 3000 TSRA SCT025CB PROB40
TEMPO 2812/2821 TSGR PROB40 2822/2903 2000 BR BKN003
TEMPO 2908/2912 SCT020CB

Example: see airport list